sensor_id;sensor_type;location;lat;lon;timestamp;P1;durP1;ratioP1;P2;durP2;ratioP2
67597;SDS011;62026;39.230;9.122;2022-12-26T00:01:57;4.88;;;2.55;;
67597;SDS011;62026;39.230;9.122;2022-12-26T00:04:24;5.10;;;2.47;;
67597;SDS011;62026;39.230;9.122;2022-12-26T00:06:51;4.05;;;2.30;;
67597;SDS011;62026;39.230;9.122;2022-12-26T00:09:17;3.90;;;2.38;;
67597;SDS011;62026;39.230;9.122;2022-12-26T00:11:43;5.80;;;2.47;;
67597;SDS011;62026;39.230;9.122;2022-12-26T00:14:13;5.40;;;2.75;;
67597;SDS011;62026;39.230;9.122;2022-12-26T00:16:41;4.13;;;2.85;;
67597;SDS011;62026;39.230;9.122;2022-12-26T00:19:09;7.05;;;3.20;;
67597;SDS011;62026;39.230;9.122;2022-12-26T00:21:35;4.95;;;3.10;;
67597;SDS011;62026;39.230;9.122;2022-12-26T00:24:01;4.50;;;2.70;;
67597;SDS011;62026;39.230;9.122;2022-12-26T00:26:29;5.60;;;2.63;;
67597;SDS011;62026;39.230;9.122;2022-12-26T00:28:57;5.47;;;2.85;;
67597;SDS011;62026;39.230;9.122;2022-12-26T00:31:25;3.95;;;2.65;;
67597;SDS011;62026;39.230;9.122;2022-12-26T00:33:56;4.68;;;2.95;;
67597;SDS011;62026;39.230;9.122;2022-12-26T00:36:24;6.07;;;3.00;;
67597;SDS011;62026;39.230;9.122;2022-12-26T00:38:54;9.15;;;3.95;;
67597;SDS011;62026;39.230;9.122;2022-12-26T00:41:22;7.15;;;3.55;;
67597;SDS011;62026;39.230;9.122;2022-12-26T00:43:49;6.45;;;3.67;;
67597;SDS011;62026;39.230;9.122;2022-12-26T00:46:16;7.20;;;3.90;;
67597;SDS011;62026;39.230;9.122;2022-12-26T00:48:42;5.50;;;3.40;;
67597;SDS011;62026;39.230;9.122;2022-12-26T00:51:08;8.80;;;3.90;;
67597;SDS011;62026;39.230;9.122;2022-12-26T00:53:35;7.20;;;3.60;;
67597;SDS011;62026;39.230;9.122;2022-12-26T00:56:01;7.57;;;3.75;;
67597;SDS011;62026;39.230;9.122;2022-12-26T00:58:27;9.18;;;4.30;;
67597;SDS011;62026;39.230;9.122;2022-12-26T01:00:54;9.40;;;3.80;;
67597;SDS011;62026;39.230;9.122;2022-12-26T01:03:28;8.52;;;4.28;;
67597;SDS011;62026;39.230;9.122;2022-12-26T01:05:54;6.28;;;3.42;;
67597;SDS011;62026;39.230;9.122;2022-12-26T01:08:20;7.50;;;3.45;;
67597;SDS011;62026;39.230;9.122;2022-12-26T01:10:46;6.72;;;3.78;;
67597;SDS011;62026;39.230;9.122;2022-12-26T01:13:12;5.18;;;3.20;;
67597;SDS011;62026;39.230;9.122;2022-12-26T01:15:39;5.15;;;3.17;;
67597;SDS011;62026;39.230;9.122;2022-12-26T01:18:12;6.32;;;3.20;;
67597;SDS011;62026;39.230;9.122;2022-12-26T01:20:38;5.00;;;3.40;;
67597;SDS011;62026;39.230;9.122;2022-12-26T01:23:04;5.55;;;3.53;;
67597;SDS011;62026;39.230;9.122;2022-12-26T01:25:30;6.07;;;3.38;;
67597;SDS011;62026;39.230;9.122;2022-12-26T01:27:56;6.00;;;3.50;;
67597;SDS011;62026;39.230;9.122;2022-12-26T01:30:22;5.47;;;3.35;;
67597;SDS011;62026;39.230;9.122;2022-12-26T01:32:48;6.60;;;3.58;;
67597;SDS011;62026;39.230;9.122;2022-12-26T01:35:14;5.85;;;3.47;;
67597;SDS011;62026;39.230;9.122;2022-12-26T01:37:40;4.72;;;3.20;;
67597;SDS011;62026;39.230;9.122;2022-12-26T01:40:06;8.95;;;3.47;;
67597;SDS011;62026;39.230;9.122;2022-12-26T01:42:37;6.45;;;3.58;;
67597;SDS011;62026;39.230;9.122;2022-12-26T01:47:53;4.13;;;3.03;;
67597;SDS011;62026;39.230;9.122;2022-12-26T01:50:44;5.78;;;3.67;;
67597;SDS011;62026;39.230;9.122;2022-12-26T01:53:17;4.35;;;3.10;;
67597;SDS011;62026;39.230;9.122;2022-12-26T01:56:07;6.03;;;3.85;;
67597;SDS011;62026;39.230;9.122;2022-12-26T01:58:47;6.20;;;3.88;;
67597;SDS011;62026;39.230;9.122;2022-12-26T02:01:25;6.32;;;3.78;;
67597;SDS011;62026;39.230;9.122;2022-12-26T02:06:54;7.15;;;4.18;;
67597;SDS011;62026;39.230;9.122;2022-12-26T02:09:20;6.80;;;3.38;;
67597;SDS011;62026;39.230;9.122;2022-12-26T02:11:47;6.55;;;3.78;;
67597;SDS011;62026;39.230;9.122;2022-12-26T02:14:38;9.13;;;4.07;;
67597;SDS011;62026;39.230;9.122;2022-12-26T02:17:04;6.43;;;3.75;;
67597;SDS011;62026;39.230;9.122;2022-12-26T02:19:49;7.22;;;4.35;;
67597;SDS011;62026;39.230;9.122;2022-12-26T02:36:52;10.48;;;4.22;;
67597;SDS011;62026;39.230;9.122;2022-12-26T02:57:07;6.57;;;3.90;;
67597;SDS011;62026;39.230;9.122;2022-12-26T03:03:17;6.78;;;3.80;;
67597;SDS011;62026;39.230;9.122;2022-12-26T03:09:28;4.88;;;2.88;;
67597;SDS011;62026;39.230;9.122;2022-12-26T03:15:02;4.90;;;2.90;;
67597;SDS011;62026;39.230;9.122;2022-12-26T03:17:40;6.88;;;3.08;;
67597;SDS011;62026;39.230;9.122;2022-12-26T03:25:45;4.93;;;3.10;;
67597;SDS011;62026;39.230;9.122;2022-12-26T03:28:37;4.53;;;2.42;;
67597;SDS011;62026;39.230;9.122;2022-12-26T03:31:11;4.20;;;2.80;;
67597;SDS011;62026;39.230;9.122;2022-12-26T03:33:44;5.30;;;2.97;;
67597;SDS011;62026;39.230;9.122;2022-12-26T03:39:34;5.65;;;3.05;;
67597;SDS011;62026;39.230;9.122;2022-12-26T03:48:59;3.80;;;2.33;;
67597;SDS011;62026;39.230;9.122;2022-12-26T03:52:01;4.32;;;2.30;;
67597;SDS011;62026;39.230;9.122;2022-12-26T03:55:22;4.47;;;2.53;;
67597;SDS011;62026;39.230;9.122;2022-12-26T03:58:40;4.45;;;2.38;;
67597;SDS011;62026;39.230;9.122;2022-12-26T04:01:32;3.67;;;2.25;;
67597;SDS011;62026;39.230;9.122;2022-12-26T04:04:22;5.90;;;2.58;;
67597;SDS011;62026;39.230;9.122;2022-12-26T04:07:14;4.15;;;2.35;;
67597;SDS011;62026;39.230;9.122;2022-12-26T04:12:57;5.25;;;2.63;;
67597;SDS011;62026;39.230;9.122;2022-12-26T04:18:34;4.75;;;2.65;;
67597;SDS011;62026;39.230;9.122;2022-12-26T04:21:44;3.58;;;2.42;;
67597;SDS011;62026;39.230;9.122;2022-12-26T04:24:54;5.47;;;2.40;;
67597;SDS011;62026;39.230;9.122;2022-12-26T04:27:50;5.28;;;2.10;;
67597;SDS011;62026;39.230;9.122;2022-12-26T04:30:35;5.10;;;2.40;;
67597;SDS011;62026;39.230;9.122;2022-12-26T04:33:39;5.75;;;2.20;;
67597;SDS011;62026;39.230;9.122;2022-12-26T04:36:32;3.97;;;2.38;;
67597;SDS011;62026;39.230;9.122;2022-12-26T04:39:30;3.50;;;2.45;;
67597;SDS011;62026;39.230;9.122;2022-12-26T04:42:17;6.57;;;2.85;;
67597;SDS011;62026;39.230;9.122;2022-12-26T04:45:06;4.10;;;2.30;;
67597;SDS011;62026;39.230;9.122;2022-12-26T04:47:34;3.60;;;2.40;;
67597;SDS011;62026;39.230;9.122;2022-12-26T04:50:03;3.88;;;2.22;;
67597;SDS011;62026;39.230;9.122;2022-12-26T04:52:40;4.13;;;2.00;;
67597;SDS011;62026;39.230;9.122;2022-12-26T04:55:23;3.67;;;2.03;;
67597;SDS011;62026;39.230;9.122;2022-12-26T04:57:58;2.90;;;2.20;;
67597;SDS011;62026;39.230;9.122;2022-12-26T05:00:25;4.45;;;2.22;;
67597;SDS011;62026;39.230;9.122;2022-12-26T05:02:53;3.33;;;1.88;;
67597;SDS011;62026;39.230;9.122;2022-12-26T05:05:39;5.63;;;2.10;;
67597;SDS011;62026;39.230;9.122;2022-12-26T05:08:37;3.17;;;1.95;;
67597;SDS011;62026;39.230;9.122;2022-12-26T05:11:25;3.60;;;1.90;;
67597;SDS011;62026;39.230;9.122;2022-12-26T05:13:53;3.00;;;1.88;;
67597;SDS011;62026;39.230;9.122;2022-12-26T05:16:22;5.85;;;1.83;;
67597;SDS011;62026;39.230;9.122;2022-12-26T05:19:09;5.85;;;1.95;;
67597;SDS011;62026;39.230;9.122;2022-12-26T05:22:00;4.80;;;1.90;;
67597;SDS011;62026;39.230;9.122;2022-12-26T05:24:47;4.13;;;2.00;;
67597;SDS011;62026;39.230;9.122;2022-12-26T05:27:39;3.72;;;2.10;;
67597;SDS011;62026;39.230;9.122;2022-12-26T05:30:27;3.38;;;1.75;;
67597;SDS011;62026;39.230;9.122;2022-12-26T05:32:53;3.28;;;1.83;;
67597;SDS011;62026;39.230;9.122;2022-12-26T05:35:37;3.55;;;1.88;;
67597;SDS011;62026;39.230;9.122;2022-12-26T05:38:04;4.28;;;2.15;;
67597;SDS011;62026;39.230;9.122;2022-12-26T05:40:32;3.33;;;2.22;;
67597;SDS011;62026;39.230;9.122;2022-12-26T05:42:58;2.92;;;1.70;;
67597;SDS011;62026;39.230;9.122;2022-12-26T05:45:24;3.97;;;1.85;;
67597;SDS011;62026;39.230;9.122;2022-12-26T05:47:56;3.17;;;1.48;;
67597;SDS011;62026;39.230;9.122;2022-12-26T05:50:25;5.85;;;1.88;;
67597;SDS011;62026;39.230;9.122;2022-12-26T05:52:52;3.75;;;1.70;;
67597;SDS011;62026;39.230;9.122;2022-12-26T05:55:21;2.45;;;1.58;;
67597;SDS011;62026;39.230;9.122;2022-12-26T05:57:48;3.53;;;1.83;;
67597;SDS011;62026;39.230;9.122;2022-12-26T06:00:15;2.88;;;1.80;;
67597;SDS011;62026;39.230;9.122;2022-12-26T06:02:41;4.07;;;1.77;;
67597;SDS011;62026;39.230;9.122;2022-12-26T06:05:08;3.00;;;1.70;;
67597;SDS011;62026;39.230;9.122;2022-12-26T06:07:34;2.13;;;1.38;;
67597;SDS011;62026;39.230;9.122;2022-12-26T06:10:00;3.10;;;1.70;;
67597;SDS011;62026;39.230;9.122;2022-12-26T06:12:26;3.90;;;1.95;;
67597;SDS011;62026;39.230;9.122;2022-12-26T06:14:52;2.70;;;1.90;;
67597;SDS011;62026;39.230;9.122;2022-12-26T06:17:18;5.47;;;2.20;;
67597;SDS011;62026;39.230;9.122;2022-12-26T06:19:44;3.45;;;2.40;;
67597;SDS011;62026;39.230;9.122;2022-12-26T06:22:10;4.60;;;2.33;;
67597;SDS011;62026;39.230;9.122;2022-12-26T06:24:36;4.97;;;1.90;;
67597;SDS011;62026;39.230;9.122;2022-12-26T06:27:02;5.30;;;2.30;;
67597;SDS011;62026;39.230;9.122;2022-12-26T06:29:28;3.15;;;2.30;;
67597;SDS011;62026;39.230;9.122;2022-12-26T06:31:53;3.67;;;2.13;;
67597;SDS011;62026;39.230;9.122;2022-12-26T06:34:19;9.40;;;2.70;;
67597;SDS011;62026;39.230;9.122;2022-12-26T06:36:45;4.35;;;1.73;;
67597;SDS011;62026;39.230;9.122;2022-12-26T06:39:11;5.43;;;1.92;;
67597;SDS011;62026;39.230;9.122;2022-12-26T06:41:37;3.70;;;1.70;;
67597;SDS011;62026;39.230;9.122;2022-12-26T06:44:03;2.38;;;1.80;;
67597;SDS011;62026;39.230;9.122;2022-12-26T06:46:29;3.92;;;1.92;;
67597;SDS011;62026;39.230;9.122;2022-12-26T06:48:55;2.58;;;1.70;;
67597;SDS011;62026;39.230;9.122;2022-12-26T06:51:22;3.20;;;2.08;;
67597;SDS011;62026;39.230;9.122;2022-12-26T06:53:51;5.75;;;2.05;;
67597;SDS011;62026;39.230;9.122;2022-12-26T06:56:19;4.05;;;1.77;;
67597;SDS011;62026;39.230;9.122;2022-12-26T06:58:52;4.70;;;1.90;;
67597;SDS011;62026;39.230;9.122;2022-12-26T07:01:30;3.65;;;1.90;;
67597;SDS011;62026;39.230;9.122;2022-12-26T07:03:59;6.80;;;2.30;;
67597;SDS011;62026;39.230;9.122;2022-12-26T07:06:26;7.07;;;2.65;;
67597;SDS011;62026;39.230;9.122;2022-12-26T07:09:05;3.83;;;2.33;;
67597;SDS011;62026;39.230;9.122;2022-12-26T07:11:39;6.95;;;2.50;;
67597;SDS011;62026;39.230;9.122;2022-12-26T07:14:08;5.63;;;2.97;;
67597;SDS011;62026;39.230;9.122;2022-12-26T07:16:35;6.35;;;2.90;;
67597;SDS011;62026;39.230;9.122;2022-12-26T07:19:04;7.65;;;2.70;;
67597;SDS011;62026;39.230;9.122;2022-12-26T07:21:31;4.93;;;3.00;;
67597;SDS011;62026;39.230;9.122;2022-12-26T07:23:57;4.00;;;2.72;;
67597;SDS011;62026;39.230;9.122;2022-12-26T07:26:24;6.32;;;3.30;;
67597;SDS011;62026;39.230;9.122;2022-12-26T07:28:54;10.95;;;3.85;;
67597;SDS011;62026;39.230;9.122;2022-12-26T07:31:21;8.57;;;4.95;;
67597;SDS011;62026;39.230;9.122;2022-12-26T07:33:50;7.57;;;4.22;;
67597;SDS011;62026;39.230;9.122;2022-12-26T07:36:19;7.30;;;4.30;;
67597;SDS011;62026;39.230;9.122;2022-12-26T07:38:46;8.13;;;4.20;;
67597;SDS011;62026;39.230;9.122;2022-12-26T07:41:13;6.75;;;4.05;;
67597;SDS011;62026;39.230;9.122;2022-12-26T07:43:59;11.02;;;4.72;;
67597;SDS011;62026;39.230;9.122;2022-12-26T07:46:26;6.65;;;4.30;;
67597;SDS011;62026;39.230;9.122;2022-12-26T07:48:52;9.98;;;4.53;;
67597;SDS011;62026;39.230;9.122;2022-12-26T07:51:19;8.80;;;4.28;;
67597;SDS011;62026;39.230;9.122;2022-12-26T07:53:45;8.38;;;5.07;;
67597;SDS011;62026;39.230;9.122;2022-12-26T07:56:12;11.25;;;5.07;;
67597;SDS011;62026;39.230;9.122;2022-12-26T07:58:39;7.63;;;4.50;;
67597;SDS011;62026;39.230;9.122;2022-12-26T08:01:04;9.35;;;5.15;;
67597;SDS011;62026;39.230;9.122;2022-12-26T08:03:31;8.75;;;4.57;;
67597;SDS011;62026;39.230;9.122;2022-12-26T08:05:58;8.05;;;5.30;;
67597;SDS011;62026;39.230;9.122;2022-12-26T08:08:25;18.83;;;6.32;;
67597;SDS011;62026;39.230;9.122;2022-12-26T08:11:00;12.15;;;5.28;;
67597;SDS011;62026;39.230;9.122;2022-12-26T08:13:29;9.23;;;4.38;;
67597;SDS011;62026;39.230;9.122;2022-12-26T08:15:56;10.10;;;5.18;;
67597;SDS011;62026;39.230;9.122;2022-12-26T08:18:23;9.15;;;5.38;;
67597;SDS011;62026;39.230;9.122;2022-12-26T08:20:50;15.43;;;7.47;;
67597;SDS011;62026;39.230;9.122;2022-12-26T08:23:17;22.77;;;12.20;;
67597;SDS011;62026;39.230;9.122;2022-12-26T08:25:43;20.77;;;10.60;;
67597;SDS011;62026;39.230;9.122;2022-12-26T08:28:09;14.82;;;7.85;;
67597;SDS011;62026;39.230;9.122;2022-12-26T08:30:37;10.27;;;6.40;;
67597;SDS011;62026;39.230;9.122;2022-12-26T08:33:05;11.18;;;6.05;;
67597;SDS011;62026;39.230;9.122;2022-12-26T08:35:33;9.48;;;5.75;;
67597;SDS011;62026;39.230;9.122;2022-12-26T08:38:00;9.63;;;5.55;;
67597;SDS011;62026;39.230;9.122;2022-12-26T08:40:26;8.30;;;5.05;;
67597;SDS011;62026;39.230;9.122;2022-12-26T08:42:52;9.85;;;5.05;;
67597;SDS011;62026;39.230;9.122;2022-12-26T08:45:18;8.85;;;4.70;;
67597;SDS011;62026;39.230;9.122;2022-12-26T08:47:44;5.68;;;4.22;;
67597;SDS011;62026;39.230;9.122;2022-12-26T08:50:11;5.85;;;4.18;;
67597;SDS011;62026;39.230;9.122;2022-12-26T08:52:37;10.63;;;4.55;;
67597;SDS011;62026;39.230;9.122;2022-12-26T08:55:06;7.18;;;4.43;;
67597;SDS011;62026;39.230;9.122;2022-12-26T08:57:33;7.30;;;4.55;;
67597;SDS011;62026;39.230;9.122;2022-12-26T08:59:59;8.63;;;4.78;;
67597;SDS011;62026;39.230;9.122;2022-12-26T09:02:25;13.68;;;6.50;;
67597;SDS011;62026;39.230;9.122;2022-12-26T09:04:51;8.50;;;4.78;;
67597;SDS011;62026;39.230;9.122;2022-12-26T09:07:17;8.15;;;4.75;;
67597;SDS011;62026;39.230;9.122;2022-12-26T09:09:43;6.57;;;4.70;;
67597;SDS011;62026;39.230;9.122;2022-12-26T09:12:09;7.47;;;4.55;;
67597;SDS011;62026;39.230;9.122;2022-12-26T09:14:35;7.35;;;4.07;;
67597;SDS011;62026;39.230;9.122;2022-12-26T09:17:01;6.07;;;3.55;;
67597;SDS011;62026;39.230;9.122;2022-12-26T09:19:27;7.18;;;3.60;;
67597;SDS011;62026;39.230;9.122;2022-12-26T09:21:56;5.43;;;3.45;;
67597;SDS011;62026;39.230;9.122;2022-12-26T09:24:42;6.47;;;3.35;;
67597;SDS011;62026;39.230;9.122;2022-12-26T09:27:08;6.32;;;3.22;;
67597;SDS011;62026;39.230;9.122;2022-12-26T09:29:35;4.82;;;3.67;;
67597;SDS011;62026;39.230;9.122;2022-12-26T09:32:02;5.38;;;3.55;;
67597;SDS011;62026;39.230;9.122;2022-12-26T09:34:29;6.93;;;3.33;;
67597;SDS011;62026;39.230;9.122;2022-12-26T09:36:55;5.88;;;3.33;;
67597;SDS011;62026;39.230;9.122;2022-12-26T09:39:21;5.32;;;3.60;;
67597;SDS011;62026;39.230;9.122;2022-12-26T09:44:50;5.70;;;3.78;;
67597;SDS011;62026;39.230;9.122;2022-12-26T09:50:12;6.15;;;4.50;;
67597;SDS011;62026;39.230;9.122;2022-12-26T10:01:11;7.60;;;4.88;;
67597;SDS011;62026;39.230;9.122;2022-12-26T10:03:57;11.65;;;5.05;;
67597;SDS011;62026;39.230;9.122;2022-12-26T10:06:26;7.40;;;4.78;;
67597;SDS011;62026;39.230;9.122;2022-12-26T10:12:08;7.78;;;4.70;;
67597;SDS011;62026;39.230;9.122;2022-12-26T10:15:29;7.38;;;4.85;;
67597;SDS011;62026;39.230;9.122;2022-12-26T10:23:34;10.20;;;5.10;;
67597;SDS011;62026;39.230;9.122;2022-12-26T10:26:20;8.65;;;4.28;;
67597;SDS011;62026;39.230;9.122;2022-12-26T10:28:57;7.20;;;4.32;;
67597;SDS011;62026;39.230;9.122;2022-12-26T10:31:44;7.88;;;4.40;;
67597;SDS011;62026;39.230;9.122;2022-12-26T10:39:42;9.27;;;6.05;;
67597;SDS011;62026;39.230;9.122;2022-12-26T10:42:26;7.15;;;5.18;;
67597;SDS011;62026;39.230;9.122;2022-12-26T10:45:06;19.23;;;6.60;;
67597;SDS011;62026;39.230;9.122;2022-12-26T10:47:41;13.15;;;6.28;;
67597;SDS011;62026;39.230;9.122;2022-12-26T10:50:16;8.23;;;5.55;;
67597;SDS011;62026;39.230;9.122;2022-12-26T10:52:48;11.27;;;6.28;;
67597;SDS011;62026;39.230;9.122;2022-12-26T10:55:17;11.13;;;5.82;;
67597;SDS011;62026;39.230;9.122;2022-12-26T10:57:51;9.25;;;5.80;;
67597;SDS011;62026;39.230;9.122;2022-12-26T11:00:20;7.93;;;5.25;;
67597;SDS011;62026;39.230;9.122;2022-12-26T11:03:06;9.30;;;4.93;;
67597;SDS011;62026;39.230;9.122;2022-12-26T11:05:37;8.68;;;4.95;;
67597;SDS011;62026;39.230;9.122;2022-12-26T11:10:46;6.65;;;4.10;;
67597;SDS011;62026;39.230;9.122;2022-12-26T11:13:46;7.28;;;4.05;;
67597;SDS011;62026;39.230;9.122;2022-12-26T11:16:23;9.27;;;4.13;;
67597;SDS011;62026;39.230;9.122;2022-12-26T11:18:55;9.07;;;4.25;;
67597;SDS011;62026;39.230;9.122;2022-12-26T11:21:26;7.82;;;4.55;;
67597;SDS011;62026;39.230;9.122;2022-12-26T11:24:16;7.35;;;4.70;;
67597;SDS011;62026;39.230;9.122;2022-12-26T11:26:43;11.45;;;5.28;;
67597;SDS011;62026;39.230;9.122;2022-12-26T11:29:11;14.07;;;7.47;;
67597;SDS011;62026;39.230;9.122;2022-12-26T11:31:57;12.82;;;7.95;;
67597;SDS011;62026;39.230;9.122;2022-12-26T11:34:37;14.27;;;8.38;;
67597;SDS011;62026;39.230;9.122;2022-12-26T11:37:24;14.23;;;8.07;;
67597;SDS011;62026;39.230;9.122;2022-12-26T11:39:55;15.00;;;7.90;;
67597;SDS011;62026;39.230;9.122;2022-12-26T11:42:23;15.02;;;7.90;;
67597;SDS011;62026;39.230;9.122;2022-12-26T11:44:51;13.45;;;7.38;;
67597;SDS011;62026;39.230;9.122;2022-12-26T11:47:21;10.45;;;7.03;;
67597;SDS011;62026;39.230;9.122;2022-12-26T11:49:59;13.68;;;7.22;;
67597;SDS011;62026;39.230;9.122;2022-12-26T11:55:28;13.88;;;7.85;;
67597;SDS011;62026;39.230;9.122;2022-12-26T12:00:39;11.40;;;7.38;;
67597;SDS011;62026;39.230;9.122;2022-12-26T12:03:12;14.93;;;7.88;;
67597;SDS011;62026;39.230;9.122;2022-12-26T12:23:24;11.88;;;7.25;;
67597;SDS011;62026;39.230;9.122;2022-12-26T12:29:29;16.23;;;7.10;;
67597;SDS011;62026;39.230;9.122;2022-12-26T12:39:14;12.90;;;7.88;;
67597;SDS011;62026;39.230;9.122;2022-12-26T13:00:17;13.75;;;5.85;;
67597;SDS011;62026;39.230;9.122;2022-12-26T13:12:06;9.13;;;5.13;;
67597;SDS011;62026;39.230;9.122;2022-12-26T13:14:38;12.23;;;6.57;;
67597;SDS011;62026;39.230;9.122;2022-12-26T13:17:28;9.25;;;5.00;;
67597;SDS011;62026;39.230;9.122;2022-12-26T13:20:14;6.75;;;4.38;;
67597;SDS011;62026;39.230;9.122;2022-12-26T13:22:56;6.35;;;3.83;;
67597;SDS011;62026;39.230;9.122;2022-12-26T13:25:49;6.75;;;3.97;;
67597;SDS011;62026;39.230;9.122;2022-12-26T13:28:34;6.47;;;3.67;;
67597;SDS011;62026;39.230;9.122;2022-12-26T13:31:12;4.78;;;3.30;;
67597;SDS011;62026;39.230;9.122;2022-12-26T13:33:40;6.20;;;3.33;;
67597;SDS011;62026;39.230;9.122;2022-12-26T13:36:07;7.15;;;3.25;;
67597;SDS011;62026;39.230;9.122;2022-12-26T13:41:25;4.07;;;2.63;;
67597;SDS011;62026;39.230;9.122;2022-12-26T13:55:27;4.47;;;3.08;;
67597;SDS011;62026;39.230;9.122;2022-12-26T13:58:15;3.88;;;2.45;;
67597;SDS011;62026;39.230;9.122;2022-12-26T14:00:47;6.03;;;2.95;;
67597;SDS011;62026;39.230;9.122;2022-12-26T14:03:36;5.80;;;2.90;;
67597;SDS011;62026;39.230;9.122;2022-12-26T14:15:21;5.50;;;3.10;;
67597;SDS011;62026;39.230;9.122;2022-12-26T14:24:01;6.80;;;3.25;;
67597;SDS011;62026;39.230;9.122;2022-12-26T14:27:10;7.82;;;3.38;;
67597;SDS011;62026;39.230;9.122;2022-12-26T14:32:54;9.88;;;5.30;;
67597;SDS011;62026;39.230;9.122;2022-12-26T14:38:56;8.10;;;4.45;;
67597;SDS011;62026;39.230;9.122;2022-12-26T14:44:49;8.90;;;4.30;;
67597;SDS011;62026;39.230;9.122;2022-12-26T14:55:52;4.40;;;3.05;;
67597;SDS011;62026;39.230;9.122;2022-12-26T15:01:49;4.40;;;3.03;;
67597;SDS011;62026;39.230;9.122;2022-12-26T15:16:44;4.90;;;3.42;;
67597;SDS011;62026;39.230;9.122;2022-12-26T15:25:07;7.80;;;4.80;;
67597;SDS011;62026;39.230;9.122;2022-12-26T15:31:05;10.57;;;4.80;;
67597;SDS011;62026;39.230;9.122;2022-12-26T15:37:48;7.82;;;4.75;;
67597;SDS011;62026;39.230;9.122;2022-12-26T15:40:43;8.25;;;4.00;;
67597;SDS011;62026;39.230;9.122;2022-12-26T15:43:34;10.32;;;3.60;;
67597;SDS011;62026;39.230;9.122;2022-12-26T15:46:44;6.70;;;3.53;;
67597;SDS011;62026;39.230;9.122;2022-12-26T15:49:49;9.80;;;3.45;;
67597;SDS011;62026;39.230;9.122;2022-12-26T15:59:03;7.75;;;4.40;;
67597;SDS011;62026;39.230;9.122;2022-12-26T16:04:57;9.50;;;3.80;;
67597;SDS011;62026;39.230;9.122;2022-12-26T16:13:00;9.20;;;3.90;;
67597;SDS011;62026;39.230;9.122;2022-12-26T16:16:10;4.53;;;3.10;;
67597;SDS011;62026;39.230;9.122;2022-12-26T16:18:30;6.57;;;3.58;;
67597;SDS011;62026;39.230;9.122;2022-12-26T16:20:58;6.45;;;3.45;;
67597;SDS011;62026;39.230;9.122;2022-12-26T16:23:48;5.22;;;3.53;;
67597;SDS011;62026;39.230;9.122;2022-12-26T16:26:22;6.00;;;3.58;;
67597;SDS011;62026;39.230;9.122;2022-12-26T16:28:55;6.53;;;3.10;;
67597;SDS011;62026;39.230;9.122;2022-12-26T16:31:25;4.25;;;3.35;;
67597;SDS011;62026;39.230;9.122;2022-12-26T16:33:57;6.25;;;3.83;;
67597;SDS011;62026;39.230;9.122;2022-12-26T16:36:28;8.13;;;4.70;;
67597;SDS011;62026;39.230;9.122;2022-12-26T16:39:00;6.50;;;4.07;;
67597;SDS011;62026;39.230;9.122;2022-12-26T16:41:30;7.25;;;4.13;;
67597;SDS011;62026;39.230;9.122;2022-12-26T16:44:05;7.93;;;4.57;;
67597;SDS011;62026;39.230;9.122;2022-12-26T16:47:06;9.70;;;5.10;;
67597;SDS011;62026;39.230;9.122;2022-12-26T16:49:37;10.20;;;4.95;;
67597;SDS011;62026;39.230;9.122;2022-12-26T16:52:15;8.23;;;4.65;;
67597;SDS011;62026;39.230;9.122;2022-12-26T16:57:59;6.10;;;4.30;;
67597;SDS011;62026;39.230;9.122;2022-12-26T17:00:35;6.97;;;4.68;;
67597;SDS011;62026;39.230;9.122;2022-12-26T17:03:01;10.55;;;5.10;;
67597;SDS011;62026;39.230;9.122;2022-12-26T17:05:44;7.32;;;4.93;;
67597;SDS011;62026;39.230;9.122;2022-12-26T17:08:11;9.27;;;5.35;;
67597;SDS011;62026;39.230;9.122;2022-12-26T17:10:39;8.55;;;5.40;;
67597;SDS011;62026;39.230;9.122;2022-12-26T17:13:17;8.60;;;5.13;;
67597;SDS011;62026;39.230;9.122;2022-12-26T17:15:50;9.23;;;5.35;;
67597;SDS011;62026;39.230;9.122;2022-12-26T17:18:29;9.38;;;5.70;;
67597;SDS011;62026;39.230;9.122;2022-12-26T17:21:15;10.63;;;6.50;;
67597;SDS011;62026;39.230;9.122;2022-12-26T17:23:57;10.40;;;5.68;;
67597;SDS011;62026;39.230;9.122;2022-12-26T17:29:34;8.68;;;5.70;;
67597;SDS011;62026;39.230;9.122;2022-12-26T17:32:34;13.50;;;6.30;;
67597;SDS011;62026;39.230;9.122;2022-12-26T17:35:09;10.00;;;6.05;;
67597;SDS011;62026;39.230;9.122;2022-12-26T17:37:42;11.23;;;6.40;;
67597;SDS011;62026;39.230;9.122;2022-12-26T17:43:23;10.75;;;6.10;;
67597;SDS011;62026;39.230;9.122;2022-12-26T17:45:34;9.48;;;6.25;;
67597;SDS011;62026;39.230;9.122;2022-12-26T17:48:00;9.82;;;5.63;;
67597;SDS011;62026;39.230;9.122;2022-12-26T17:50:30;17.67;;;8.30;;
67597;SDS011;62026;39.230;9.122;2022-12-26T17:53:01;26.20;;;13.32;;
67597;SDS011;62026;39.230;9.122;2022-12-26T17:55:46;36.25;;;20.35;;
67597;SDS011;62026;39.230;9.122;2022-12-26T17:58:14;37.60;;;24.20;;
67597;SDS011;62026;39.230;9.122;2022-12-26T18:00:41;36.47;;;22.80;;
67597;SDS011;62026;39.230;9.122;2022-12-26T18:03:08;43.00;;;24.83;;
67597;SDS011;62026;39.230;9.122;2022-12-26T18:05:34;48.92;;;25.67;;
67597;SDS011;62026;39.230;9.122;2022-12-26T18:08:02;36.90;;;21.25;;
67597;SDS011;62026;39.230;9.122;2022-12-26T18:10:30;36.85;;;19.27;;
67597;SDS011;62026;39.230;9.122;2022-12-26T18:12:59;35.60;;;18.48;;
67597;SDS011;62026;39.230;9.122;2022-12-26T18:15:27;26.60;;;16.27;;
67597;SDS011;62026;39.230;9.122;2022-12-26T18:17:55;22.73;;;13.55;;
67597;SDS011;62026;39.230;9.122;2022-12-26T18:20:26;30.98;;;18.77;;
67597;SDS011;62026;39.230;9.122;2022-12-26T18:22:54;35.97;;;21.92;;
67597;SDS011;62026;39.230;9.122;2022-12-26T18:25:22;45.35;;;25.30;;
67597;SDS011;62026;39.230;9.122;2022-12-26T18:27:50;43.70;;;25.73;;
67597;SDS011;62026;39.230;9.122;2022-12-26T18:30:21;41.75;;;25.80;;
67597;SDS011;62026;39.230;9.122;2022-12-26T18:32:50;47.35;;;26.85;;
67597;SDS011;62026;39.230;9.122;2022-12-26T18:35:17;49.70;;;27.73;;
67597;SDS011;62026;39.230;9.122;2022-12-26T18:37:47;51.80;;;29.70;;
67597;SDS011;62026;39.230;9.122;2022-12-26T18:40:29;49.10;;;27.30;;
67597;SDS011;62026;39.230;9.122;2022-12-26T18:43:00;49.85;;;28.55;;
67597;SDS011;62026;39.230;9.122;2022-12-26T18:45:28;46.95;;;27.67;;
67597;SDS011;62026;39.230;9.122;2022-12-26T18:47:55;48.88;;;28.73;;
67597;SDS011;62026;39.230;9.122;2022-12-26T18:50:22;48.83;;;28.58;;
67597;SDS011;62026;39.230;9.122;2022-12-26T18:52:49;55.72;;;30.90;;
67597;SDS011;62026;39.230;9.122;2022-12-26T18:55:15;44.65;;;28.85;;
67597;SDS011;62026;39.230;9.122;2022-12-26T18:57:41;49.38;;;29.00;;
67597;SDS011;62026;39.230;9.122;2022-12-26T19:00:07;47.60;;;26.77;;
67597;SDS011;62026;39.230;9.122;2022-12-26T19:02:40;48.72;;;28.45;;
67597;SDS011;62026;39.230;9.122;2022-12-26T19:05:17;58.20;;;31.08;;
67597;SDS011;62026;39.230;9.122;2022-12-26T19:07:48;73.23;;;39.97;;
67597;SDS011;62026;39.230;9.122;2022-12-26T19:10:15;53.38;;;30.88;;
67597;SDS011;62026;39.230;9.122;2022-12-26T19:12:45;56.47;;;30.75;;
67597;SDS011;62026;39.230;9.122;2022-12-26T19:15:12;58.47;;;33.25;;
67597;SDS011;62026;39.230;9.122;2022-12-26T19:17:39;68.65;;;36.70;;
67597;SDS011;62026;39.230;9.122;2022-12-26T19:20:08;61.42;;;34.05;;
67597;SDS011;62026;39.230;9.122;2022-12-26T19:22:45;53.05;;;28.00;;
67597;SDS011;62026;39.230;9.122;2022-12-26T19:25:13;46.28;;;26.33;;
67597;SDS011;62026;39.230;9.122;2022-12-26T19:27:39;46.95;;;25.58;;
67597;SDS011;62026;39.230;9.122;2022-12-26T19:30:06;45.80;;;25.23;;
67597;SDS011;62026;39.230;9.122;2022-12-26T19:32:32;45.85;;;26.38;;
67597;SDS011;62026;39.230;9.122;2022-12-26T19:34:58;44.25;;;27.10;;
67597;SDS011;62026;39.230;9.122;2022-12-26T19:37:24;44.65;;;27.13;;
67597;SDS011;62026;39.230;9.122;2022-12-26T19:39:50;45.83;;;26.90;;
67597;SDS011;62026;39.230;9.122;2022-12-26T19:42:16;46.15;;;27.38;;
67597;SDS011;62026;39.230;9.122;2022-12-26T19:44:42;45.10;;;27.25;;